Time;durP1;ratioP1;P1;durP2;ratioP2;P2;SDS_P1;SDS_P2;PMS_P1;PMS_P2;Temp;Humidity;BMP_temperature;BMP_pressure;BME280_temperature;BME280_humidity;BME280_pressure;Samples;Min_cycle;Max_cycle;Signal;HPM_P1;HPM_P2
2024/04/03 00:00:28;;;;;;;1.38;0.20;;;;;;;19.42;24.05;98485.88;5032918;28;20469;-72
2024/04/03 00:02:53;;;;;;;1.88;0.13;;;;;;;19.42;24.05;98488.53;5051767;28;20037;-73
2024/04/03 00:05:19;;;;;;;0.17;0.00;;;;;;;19.38;24.10;98489.91;5017085;28;20037;-73
2024/04/03 00:07:44;;;;;;;0.10;0.10;;;;;;;19.37;24.19;98498.84;5033931;28;20044;-72
2024/04/03 00:10:10;;;;;;;1.00;0.10;;;;;;;19.37;24.27;98493.56;5051801;28;20028;-73
2024/04/03 00:12:35;;;;;;;0.47;0.15;;;;;;;19.39;24.25;98510.06;5033911;28;20025;-73
2024/04/03 00:15:01;;;;;;;0.35;0.13;;;;;;;19.38;24.38;98516.38;5033514;28;20049;-72
2024/04/03 00:17:26;;;;;;;0.17;0.10;;;;;;;19.37;24.52;98512.09;5051305;28;20044;-73
2024/04/03 00:19:52;;;;;;;0.70;0.20;;;;;;;19.39;24.48;98518.00;5033912;28;20444;-73
2024/04/03 00:22:17;;;;;;;1.33;0.30;;;;;;;19.38;24.40;98519.84;5033575;28;20041;-73
2024/04/03 00:24:43;;;;;;;2.83;0.10;;;;;;;19.36;24.44;98510.47;5050875;28;20475;-72
2024/04/03 00:27:08;;;;;;;0.77;0.20;;;;;;;19.36;24.36;98523.69;5033714;28;20041;-72
2024/04/03 00:29:33;;;;;;;0.30;0.17;;;;;;;19.33;24.43;98520.38;5015844;28;20052;-73
2024/04/03 00:31:59;;;;;;;0.00;0.00;;;;;;;19.35;24.58;98514.91;5034255;28;20025;-72
2024/04/03 00:34:24;;;;;;;2.75;0.20;;;;;;;19.30;24.57;98511.97;5050812;28;20084;-73
2024/04/03 00:36:50;;;;;;;3.63;0.20;;;;;;;19.26;24.49;98522.09;5033536;28;20029;-73
2024/04/03 00:39:15;;;;;;;0.30;0.10;;;;;;;19.19;24.56;98512.41;5033438;28;20033;-72
2024/04/03 00:41:41;;;;;;;0.20;0.10;;;;;;;19.14;24.57;98520.88;5050692;28;20029;-72
2024/04/03 00:44:06;;;;;;;0.98;0.10;;;;;;;19.14;24.71;98523.53;5051144;28;20044;-72
2024/04/03 00:46:33;;;;;;;0.70;0.10;;;;;;;19.11;24.65;98516.75;5032592;28;20032;-72
2024/04/03 00:48:58;;;;;;;0.00;0.00;;;;;;;19.04;24.80;98523.78;5051043;28;20028;-72
2024/04/03 00:51:24;;;;;;;0.65;0.10;;;;;;;19.05;24.79;98521.94;5048717;28;20052;-72
2024/04/03 00:53:50;;;;;;;0.60;0.10;;;;;;;19.01;24.79;98529.41;5033483;28;20393;-72
2024/04/03 00:56:15;;;;;;;0.20;0.10;;;;;;;18.98;24.88;98519.19;5032963;28;20563;-72
2024/04/03 00:58:41;;;;;;;2.65;0.10;;;;;;;18.96;25.03;98535.22;5016405;28;20032;-73
2024/04/03 01:01:06;;;;;;;0.30;0.10;;;;;;;18.91;25.13;98523.50;5052301;28;20048;-72
2024/04/03 01:03:31;;;;;;;0.50;0.20;;;;;;;18.91;25.12;98534.09;5036269;28;20090;-72
2024/04/03 01:06:04;;;;;;;2.47;1.40;;;;;;;18.87;25.14;98538.91;5035664;28;20424;-72
2024/04/03 01:08:30;;;;;;;3.38;1.85;;;;;;;18.82;25.15;98535.94;5018522;28;20049;-71
2024/04/03 01:10:58;;;;;;;5.32;3.05;;;;;;;18.84;25.23;98541.91;5036904;28;20075;-72
2024/04/03 01:13:24;;;;;;;6.55;4.40;;;;;;;18.81;25.17;98548.31;5034669;28;20126;-72
2024/04/03 01:15:58;;;;;;;6.57;4.57;;;;;;;18.78;25.38;98553.97;5035525;28;20401;-72
2024/04/03 01:18:24;;;;;;;5.97;4.30;;;;;;;18.75;25.47;98546.38;5036251;28;20041;-71
2024/04/03 01:20:49;;;;;;;6.53;4.57;;;;;;;18.72;25.52;98554.69;5036388;28;20067;-72
2024/04/03 01:23:14;;;;;;;6.85;4.80;;;;;;;18.70;25.69;98559.31;5053972;28;20087;-72
2024/04/03 01:25:40;;;;;;;5.45;4.05;;;;;;;18.68;25.72;98563.94;5035640;28;20492;-72
2024/04/03 01:28:05;;;;;;;6.28;3.15;;;;;;;18.61;25.67;98561.19;5018682;28;20044;-72
2024/04/03 01:30:31;;;;;;;4.03;3.03;;;;;;;18.63;25.73;98575.03;5035739;28;20036;-72
2024/04/03 01:32:57;;;;;;;4.03;2.63;;;;;;;18.57;25.91;98564.34;5036183;28;20412;-72
2024/04/03 01:35:22;;;;;;;3.45;2.03;;;;;;;18.56;25.96;98570.63;5035787;28;20127;-72
2024/04/03 01:37:48;;;;;;;3.25;2.13;;;;;;;18.57;25.88;98581.03;5036264;28;20060;-72
2024/04/03 01:40:13;;;;;;;3.20;1.80;;;;;;;18.52;26.07;98574.63;5034177;28;20048;-72
2024/04/03 01:42:39;;;;;;;4.22;1.73;;;;;;;18.49;25.94;98585.53;5035573;28;20119;-71
2024/04/03 01:45:04;;;;;;;5.75;1.20;;;;;;;18.47;26.11;98591.00;5035575;28;20028;-71
2024/04/03 01:47:30;;;;;;;2.30;1.23;;;;;;;18.40;26.35;98587.38;5018945;28;20124;-72
2024/04/03 01:49:55;;;;;;;1.60;0.90;;;;;;;18.40;26.30;98590.00;5035738;28;20032;-72
2024/04/03 01:52:21;;;;;;;1.40;0.70;;;;;;;18.38;26.30;98592.00;5035961;28;20500;-72
2024/04/03 01:54:47;;;;;;;0.77;0.57;;;;;;;18.32;26.42;98587.41;5035789;28;20035;-71
2024/04/03 01:57:13;;;;;;;1.13;0.55;;;;;;;18.26;26.50;98587.09;5034880;28;20029;-72
2024/04/03 01:59:39;;;;;;;1.20;0.60;;;;;;;18.27;26.15;98591.38;5035314;28;20032;-72
2024/04/03 02:02:04;;;;;;;0.70;0.40;;;;;;;18.27;26.41;98591.38;5035565;28;20029;-72
2024/04/03 02:04:30;;;;;;;1.67;0.50;;;;;;;18.26;26.41;98591.53;5035601;28;20117;-72
2024/04/03 02:06:55;;;;;;;0.50;0.30;;;;;;;18.21;26.40;98593.88;5018289;28;20525;-72
2024/04/03 02:09:21;;;;;;;0.68;0.40;;;;;;;18.23;26.58;98610.38;5034756;28;20427;-72
2024/04/03 02:11:46;;;;;;;0.80;0.28;;;;;;;18.20;26.68;98600.13;5034456;28;20036;-73
2024/04/03 02:14:12;;;;;;;0.65;0.25;;;;;;;18.14;26.56;98604.28;5034539;28;20037;-72
2024/04/03 02:16:47;;;;;;;0.35;0.20;;;;;;;18.15;26.76;98600.66;5034583;28;20037;-73
2024/04/03 02:19:13;;;;;;;2.13;0.40;;;;;;;18.15;26.76;98599.81;5035580;28;20037;-72
2024/04/03 02:21:39;;;;;;;0.65;0.03;;;;;;;18.13;26.77;98607.09;5017134;28;20554;-72
2024/04/03 02:24:05;;;;;;;4.32;0.20;;;;;;;18.11;26.76;98609.91;5052302;28;20033;-72
2024/04/03 02:26:30;;;;;;;0.43;0.10;;;;;;;18.08;26.86;98600.50;5035412;28;20048;-72
2024/04/03 02:28:55;;;;;;;0.45;0.20;;;;;;;18.08;27.11;98608.44;5034814;28;20155;-72
2024/04/03 02:31:21;;;;;;;0.20;0.10;;;;;;;18.08;27.04;98604.97;5035186;28;20553;-73
2024/04/03 02:33:47;;;;;;;2.28;0.10;;;;;;;18.02;27.07;98606.44;5034190;28;20036;-72
2024/04/03 02:36:15;;;;;;;0.57;0.20;;;;;;;18.05;27.19;98606.13;5034913;28;20492;-73
2024/04/03 02:38:40;;;;;;;;;;;;;;;18.05;27.06;98600.84;5018418;28;20044;-73
2024/04/03 02:41:06;;;;;;;0.73;0.20;;;;;;;18.01;27.02;98609.25;5051047;28;19908;-73
2024/04/03 02:43:31;;;;;;;0.03;0.00;;;;;;;17.96;27.18;98604.47;5052531;28;20483;-73
2024/04/03 02:45:57;;;;;;;0.77;0.20;;;;;;;17.96;27.28;98604.47;5034913;28;20044;-73
2024/04/03 02:48:22;;;;;;;0.52;0.15;;;;;;;17.95;27.22;98604.66;5017746;28;20064;-73
2024/04/03 02:50:49;;;;;;;0.47;0.20;;;;;;;17.95;27.28;98620.50;5035167;28;20037;-72
2024/04/03 02:53:17;;;;;;;0.20;0.00;;;;;;;17.97;27.44;98624.63;5018047;28;20404;-72
2024/04/03 02:55:42;;;;;;;0.10;0.05;;;;;;;17.95;27.43;98621.34;5052122;28;20036;-72
2024/04/03 02:58:08;;;;;;;1.73;0.22;;;;;;;17.93;27.49;98631.22;5017115;28;20041;-73
2024/04/03 03:00:34;;;;;;;0.63;0.20;;;;;;;17.95;27.48;98637.19;5033800;28;20389;-73
2024/04/03 03:02:59;;;;;;;1.88;0.80;;;;;;;17.92;27.55;98640.16;5017254;28;20601;-73
2024/04/03 03:05:24;;;;;;;2.08;1.30;;;;;;;17.92;27.56;98648.06;5034257;28;20462;-73
2024/04/03 03:07:50;;;;;;;4.50;2.85;;;;;;;17.86;27.56;98644.25;5033183;28;20079;-73
2024/04/03 03:10:15;;;;;;;5.30;3.30;;;;;;;17.88;27.81;98658.16;5034780;28;20036;-73
2024/04/03 03:12:41;;;;;;;5.10;3.53;;;;;;;17.82;27.89;98647.38;5034312;28;20040;-73
2024/04/03 03:15:07;;;;;;;5.25;3.80;;;;;;;17.86;28.00;98661.91;5034233;28;20053;-73
2024/04/03 03:17:32;;;;;;;5.63;3.58;;;;;;;17.84;28.11;98662.06;5033720;28;20123;-73
2024/04/03 03:19:58;;;;;;;5.30;3.38;;;;;;;17.80;27.96;98652.81;5034282;28;20029;-74
2024/04/03 03:22:23;;;;;;;4.60;3.05;;;;;;;17.80;28.02;98657.28;5033836;28;20400;-70
2024/04/03 03:24:49;;;;;;;6.18;4.07;;;;;;;17.76;28.00;98654.16;5034426;28;20051;-72
2024/04/03 03:27:14;;;;;;;4.50;0.70;;;;;;;18.17;49.80;98677.09;5033710;28;20032;-78
2024/04/03 03:29:40;;;;;;;5.13;0.93;;;;;;;18.16;39.30;98680.75;5017231;28;20041;-77
2024/04/03 03:32:05;;;;;;;5.45;1.20;;;;;;;18.07;36.29;98685.19;5016526;28;20037;-74
2024/04/03 03:34:31;;;;;;;2.10;1.30;;;;;;;17.94;34.53;98684.88;5017620;28;20044;-74
2024/04/03 03:36:56;;;;;;;4.57;1.30;;;;;;;17.82;33.55;98687.81;5033932;28;20090;-81
2024/04/03 03:39:22;;;;;;;2.38;1.00;;;;;;;17.78;33.06;98704.97;5034176;28;20056;-74
2024/04/03 03:41:47;;;;;;;2.97;1.00;;;;;;;17.72;33.12;98706.44;5033462;28;20432;-79
2024/04/03 03:44:13;;;;;;;1.15;0.60;;;;;;;17.64;32.70;98706.44;5035787;28;20041;-87
2024/04/03 03:46:38;;;;;;;1.88;0.82;;;;;;;17.63;32.53;98706.59;5019125;28;20484;-83
2024/04/03 03:54:31;;;;;;;2.25;0.73;;;;;;;17.88;36.90;98718.88;5037371;28;20122;-82
2024/04/03 03:56:57;;;;;;;5.45;0.80;;;;;;;17.84;34.68;98717.53;5034509;28;20044;-80
2024/04/03 03:59:22;;;;;;;5.68;3.40;;;;;;;17.83;34.12;98721.13;5034350;28;20032;-80
2024/04/03 04:01:48;;;;;;;7.57;2.92;;;;;;;17.92;37.95;98726.44;5052566;28;20475;-80
2024/04/03 04:04:13;;;;;;;14.32;9.00;;;;;;;18.19;33.41;98725.31;5034439;28;20033;-81
2024/04/03 04:06:39;;;;;;;11.57;9.10;;;;;;;18.80;30.75;98733.59;5034410;28;20029;-82
2024/04/03 04:09:04;;;;;;;13.30;8.10;;;;;;;19.47;28.79;98740.31;5039929;28;20029;-84
2024/04/03 04:11:30;;;;;;;13.48;9.60;;;;;;;20.11;27.21;98734.75;5017243;28;20048;-80
2024/04/03 04:13:56;;;;;;;12.07;8.38;;;;;;;20.87;25.98;98753.28;5017184;28;20098;-83
2024/04/03 04:16:22;;;;;;;8.63;6.20;;;;;;;21.62;24.65;98746.06;5034175;28;20484;-75
2024/04/03 04:18:48;;;;;;;11.50;4.68;;;;;;;22.43;23.75;98744.97;5034603;28;20040;-81
2024/04/03 04:21:15;;;;;;;4.85;2.92;;;;;;;23.21;22.66;98744.81;5034958;28;20029;-79
2024/04/03 04:23:40;;;;;;;15.02;1.13;;;;;;;24.03;30.54;98747.50;5035080;28;20047;-80
2024/04/03 04:26:06;;;;;;;23.20;1.30;;;;;;;25.04;29.55;98751.72;5052073;28;20025;-73
2024/04/03 04:28:31;;;;;;;2.80;1.10;;;;;;;25.96;27.80;98756.81;5033652;28;20048;-69
2024/04/03 04:31:01;;;;;;;6.82;1.10;;;;;;;26.98;25.84;98754.94;5033670;28;20029;-73
2024/04/03 04:33:30;;;;;;;3.42;1.08;;;;;;;27.99;24.24;98755.34;5034143;28;20099;-71
2024/04/03 04:35:57;;;;;;;6.97;0.90;;;;;;;28.89;22.54;98764.13;5037642;28;20037;-72
2024/04/03 04:38:23;;;;;;;6.72;1.02;;;;;;;29.73;21.13;98769.06;5036626;28;20048;-71
2024/04/03 04:40:56;;;;;;;1.80;0.50;;;;;;;30.55;18.53;98771.50;5036765;28;20040;-73
2024/04/03 04:43:22;;;;;;;2.20;0.60;;;;;;;31.14;17.93;98769.09;5056405;28;20036;-75
2024/04/03 04:45:54;;;;;;;7.07;0.63;;;;;;;31.79;17.27;98779.28;5021183;28;20029;-75
2024/04/03 04:48:20;;;;;;;2.95;1.60;;;;;;;32.49;16.62;98788.25;5020847;28;20119;-75
2024/04/03 04:50:53;;;;;;;10.35;2.67;;;;;;;33.07;15.63;98791.06;5020655;28;20063;-77
2024/04/03 04:53:18;;;;;;;4.30;2.90;;;;;;;33.54;14.84;98783.94;5021564;28;20130;-79
2024/04/03 04:55:59;;;;;;;7.50;4.65;;;;;;;34.00;14.15;98796.75;5037879;28;20520;-76
2024/04/03 04:58:25;;;;;;;3.83;3.05;;;;;;;34.49;13.48;98793.56;5037574;28;20314;-77
2024/04/03 05:00:59;;;;;;;2.10;1.58;;;;;;;34.85;13.05;98798.09;5037556;28;20035;-76
2024/04/03 05:03:25;;;;;;;4.47;2.85;;;;;;;35.31;12.73;98804.22;5020629;28;20033;-74
2024/04/03 05:05:51;;;;;;;4.75;1.20;;;;;;;35.61;11.96;98807.84;5055483;28;20033;-76
2024/04/03 05:08:18;;;;;;;6.00;2.10;;;;;;;36.02;11.89;98809.50;5054983;28;20040;-77
2024/04/03 05:10:51;;;;;;;4.85;2.88;;;;;;;36.30;11.39;98804.44;5037733;28;20025;-75
2024/04/03 05:13:17;;;;;;;4.22;2.22;;;;;;;36.57;11.29;98809.34;5036701;28;20123;-77
2024/04/03 05:15:44;;;;;;;3.20;1.75;;;;;;;36.84;11.07;98816.97;5036598;28;20113;-76
2024/04/03 05:18:09;;;;;;;4.47;1.75;;;;;;;37.17;10.56;98814.44;5036369;28;20050;-76
2024/04/03 05:20:35;;;;;;;6.88;2.92;;;;;;;37.39;10.93;98813.09;5036171;28;20029;-75
2024/04/03 05:23:00;;;;;;;4.10;1.70;;;;;;;37.56;10.56;98807.97;5054557;28;20035;-78
2024/04/03 05:25:25;;;;;;;3.13;1.40;;;;;;;37.69;10.06;98824.72;5054560;28;20099;-78
2024/04/03 05:27:51;;;;;;;5.40;2.53;;;;;;;37.86;10.35;98818.72;5037009;28;20032;-76
2024/04/03 05:30:16;;;;;;;3.80;1.27;;;;;;;38.08;10.27;98820.84;5036565;28;20440;-76
2024/04/03 05:32:42;;;;;;;7.60;1.70;;;;;;;37.98;9.46;98824.53;5020030;28;20037;-78
2024/04/03 05:35:07;;;;;;;3.75;1.70;;;;;;;38.19;10.23;98827.75;5052950;28;20051;-77
2024/04/03 05:37:33;;;;;;;3.63;1.60;;;;;;;38.30;9.93;98831.13;5037097;28;20488;-78
2024/04/03 05:39:59;;;;;;;3.60;1.50;;;;;;;38.54;10.02;98833.75;5038035;28;20036;-77
2024/04/03 05:42:24;;;;;;;5.05;1.63;;;;;;;38.63;9.53;98826.50;5056617;28;20112;-76
2024/04/03 05:44:49;;;;;;;7.00;4.32;;;;;;;38.68;9.84;98845.50;5037320;28;20047;-78
2024/04/03 05:47:15;;;;;;;8.18;3.20;;;;;;;38.73;9.93;98841.88;5036085;28;20029;-77
2024/04/03 05:49:41;;;;;;;8.98;4.05;;;;;;;38.77;9.87;98847.53;5036835;28;20036;-77
2024/04/03 05:52:07;;;;;;;10.30;3.37;;;;;;;38.56;9.80;98847.88;5053926;28;20499;-77
2024/04/03 05:54:33;;;;;;;14.65;4.20;;;;;;;38.24;9.72;98846.78;5036276;28;20041;-77
2024/04/03 05:56:58;;;;;;;12.75;4.78;;;;;;;38.08;9.92;98842.63;5035176;28;20103;-78
2024/04/03 05:59:24;;;;;;;15.00;5.38;;;;;;;38.32;10.08;98851.56;5054335;28;20490;-78
2024/04/03 06:01:49;;;;;;;15.68;5.00;;;;;;;38.44;10.53;98855.72;5035881;28;20036;-76
2024/04/03 06:04:16;;;;;;;14.00;5.03;;;;;;;38.48;10.13;98845.84;5019481;28;20040;-76
2024/04/03 06:06:41;;;;;;;8.77;3.70;;;;;;;38.65;9.91;98848.84;5036352;28;20032;-76
2024/04/03 06:09:07;;;;;;;10.68;4.07;;;;;;;38.69;10.24;98854.50;5035691;28;20047;-76
2024/04/03 06:11:32;;;;;;;9.98;3.80;;;;;;;38.79;10.15;98859.75;5036017;28;20033;-76
2024/04/03 06:13:58;;;;;;;7.88;5.10;;;;;;;38.84;9.89;98851.50;5053282;28;20033;-76
2024/04/03 06:16:24;;;;;;;10.70;5.50;;;;;;;38.81;9.99;98854.00;5053761;28;20033;-78
2024/04/03 06:18:49;;;;;;;5.13;4.00;;;;;;;38.88;10.25;98857.16;5035544;28;20036;-80
2024/04/03 06:21:15;;;;;;;6.97;3.38;;;;;;;38.94;10.00;98864.13;5035806;28;20029;-77
2024/04/03 06:23:40;;;;;;;4.10;2.63;;;;;;;38.97;9.70;98868.19;5035256;28;20138;-76
2024/04/03 06:26:07;;;;;;;2.95;1.52;;;;;;;38.97;9.68;98863.53;5019305;28;20060;-76
2024/04/03 06:28:32;;;;;;;;;;;;;;;38.86;9.60;98867.56;5035671;28;20040;-77
2024/04/03 06:30:58;;;;;;;6.13;1.20;;;;;;;38.88;9.67;98857.94;5053811;28;19908;-77
2024/04/03 06:33:23;;;;;;;5.13;1.20;;;;;;;38.82;9.67;98863.81;5035675;28;20025;-76
2024/04/03 06:35:49;;;;;;;5.10;0.90;;;;;;;38.28;9.64;98866.06;5034742;28;20029;-77
2024/04/03 06:38:14;;;;;;;7.78;1.05;;;;;;;38.35;10.21;98863.75;5034993;28;20032;-77
2024/04/03 06:40:40;;;;;;;5.25;1.15;;;;;;;38.50;9.85;98865.44;5052450;28;20464;-77
2024/04/03 06:43:06;;;;;;;7.93;0.98;;;;;;;38.52;10.11;98861.31;5034620;28;20159;-80
2024/04/03 06:45:32;;;;;;;3.58;1.00;;;;;;;38.33;10.33;98863.25;5034851;28;20040;-78
2024/04/03 06:47:57;;;;;;;7.78;1.25;;;;;;;38.35;10.49;98872.75;5018093;28;20032;-77
2024/04/03 06:50:24;;;;;;;4.25;1.05;;;;;;;38.37;10.12;98875.19;5033979;28;20041;-78
2024/04/03 06:52:49;;;;;;;7.53;1.03;;;;;;;38.34;10.29;98865.69;5034858;28;20020;-78
2024/04/03 06:55:15;;;;;;;4.80;0.90;;;;;;;38.35;10.58;98869.22;5034473;28;20028;-77
2024/04/03 06:57:42;;;;;;;1.48;0.60;;;;;;;38.41;10.30;98872.66;5033762;28;20032;-76
2024/04/03 07:00:09;;;;;;;4.40;0.60;;;;;;;38.38;10.60;98876.78;5016963;28;20496;-78
2024/04/03 07:02:34;;;;;;;2.43;0.40;;;;;;;38.43;10.02;98887.63;5034866;28;20033;-76
2024/04/03 07:05:00;;;;;;;1.75;0.50;;;;;;;38.51;10.55;98883.41;5034601;28;20033;-77
2024/04/03 07:07:25;;;;;;;3.78;0.43;;;;;;;38.62;10.21;98884.91;5052347;28;20029;-77
2024/04/03 07:09:51;;;;;;;3.50;0.40;;;;;;;38.69;10.24;98879.03;5053200;28;20068;-77
2024/04/03 07:12:16;;;;;;;1.85;0.35;;;;;;;38.78;10.14;98890.88;5033801;28;20369;-77
2024/04/03 07:14:42;;;;;;;2.53;0.38;;;;;;;38.93;9.80;98897.97;5034048;28;20080;-77
2024/04/03 07:17:07;;;;;;;1.42;0.15;;;;;;;38.93;9.99;98897.16;5034846;28;20549;-80
2024/04/03 07:19:33;;;;;;;0.77;0.25;;;;;;;38.89;10.49;98892.31;5052996;28;20036;-77
2024/04/03 07:21:58;;;;;;;4.05;0.40;;;;;;;38.90;10.17;98898.56;5035038;28;20400;-78
2024/04/03 07:24:24;;;;;;;1.63;0.32;;;;;;;38.99;10.42;98898.69;5053180;28;20028;-78
2024/04/03 07:26:50;;;;;;;0.93;0.32;;;;;;;38.99;10.46;98898.69;5035354;28;20409;-77
2024/04/03 07:29:18;;;;;;;2.70;0.30;;;;;;;39.04;10.11;98885.75;5035584;28;20086;-78
2024/04/03 07:31:43;;;;;;;;;;;;;;;39.03;9.82;98892.34;5053071;28;20211;-77
2024/04/03 07:34:08;;;;;;;0.97;0.30;;;;;;;39.06;10.03;98893.63;5051460;28;19908;-79
2024/04/03 07:36:34;;;;;;;3.00;0.32;;;;;;;39.17;9.81;98883.38;5035020;28;20036;-77
2024/04/03 07:39:00;;;;;;;0.77;0.20;;;;;;;39.16;9.69;98893.47;5035285;28;20036;-78
2024/04/03 07:41:28;;;;;;;1.77;0.40;;;;;;;39.18;10.29;98883.06;5034462;28;20393;-77
2024/04/03 07:43:54;;;;;;;5.20;0.70;;;;;;;39.18;10.13;98876.81;5034937;28;20032;-78
2024/04/03 07:46:19;;;;;;;4.10;0.70;;;;;;;39.12;10.14;98884.28;5034999;28;20025;-78
2024/04/03 07:48:45;;;;;;;3.05;0.60;;;;;;;39.23;10.37;98882.16;5034329;28;20098;-75
2024/04/03 07:51:10;;;;;;;2.53;0.80;;;;;;;39.30;10.37;98876.28;5034266;28;20041;-76
2024/04/03 07:53:36;;;;;;;2.67;0.85;;;;;;;39.36;10.22;98884.09;5035069;28;20025;-76
2024/04/03 07:56:03;;;;;;;2.83;0.95;;;;;;;39.43;10.17;98884.47;5033810;28;20041;-77
2024/04/03 07:58:29;;;;;;;3.60;0.70;;;;;;;39.48;10.21;98871.84;5035089;28;20028;-77
2024/04/03 08:01:00;;;;;;;4.45;0.60;;;;;;;39.35;9.73;98874.28;5034263;28;20127;-75
2024/04/03 08:03:26;;;;;;;1.85;0.57;;;;;;;39.35;9.67;98874.28;5016860;28;20051;-76
2024/04/03 08:05:53;;;;;;;2.78;0.70;;;;;;;39.45;9.50;98868.56;5034388;28;20477;-77
2024/04/03 08:08:18;;;;;;;3.03;0.60;;;;;;;39.48;9.53;98860.91;5034117;28;20424;-76
2024/04/03 08:10:44;;;;;;;1.58;0.40;;;;;;;39.42;9.07;98863.72;5054435;28;20037;-77
2024/04/03 08:13:09;;;;;;;1.77;0.60;;;;;;;39.29;9.46;98861.84;5038569;28;20021;-77
2024/04/03 08:15:35;;;;;;;1.85;0.43;;;;;;;39.36;9.87;98864.97;5038368;28;20056;-76
2024/04/03 08:18:00;;;;;;;3.10;0.47;;;;;;;39.04;9.00;98861.19;5037559;28;20083;-75
2024/04/03 08:20:26;;;;;;;1.35;0.50;;;;;;;38.81;9.70;98859.44;5021196;28;20037;-75
2024/04/03 08:22:51;;;;;;;4.82;0.60;;;;;;;38.54;9.07;98861.00;5055171;28;20025;-78
2024/04/03 08:25:16;;;;;;;5.07;0.50;;;;;;;38.31;9.64;98852.66;5055956;28;20033;-76
2024/04/03 08:27:42;;;;;;;1.73;0.35;;;;;;;38.55;9.75;98854.44;5021105;28;20056;-77
2024/04/03 08:30:08;;;;;;;2.75;0.50;;;;;;;38.71;9.79;98858.56;5037920;28;20082;-77
2024/04/03 08:32:34;;;;;;;0.90;0.38;;;;;;;38.90;9.75;98852.19;5038527;28;20044;-77
2024/04/03 08:35:00;;;;;;;1.60;0.40;;;;;;;38.77;9.68;98850.28;5022073;28;20131;-80
2024/04/03 08:37:26;;;;;;;2.55;0.40;;;;;;;38.89;10.02;98845.94;5038896;28;20116;-79
2024/04/03 08:39:51;;;;;;;1.85;0.40;;;;;;;39.03;9.85;98854.13;5037534;28;20120;-78
2024/04/03 08:42:17;;;;;;;1.85;0.30;;;;;;;39.12;10.01;98853.44;5036692;28;20028;-78
2024/04/03 08:44:43;;;;;;;1.40;0.40;;;;;;;39.18;10.18;98857.69;5038574;28;20041;-79
2024/04/03 08:47:09;;;;;;;2.95;0.35;;;;;;;39.30;9.93;98857.16;5021955;28;20103;-79
2024/04/03 08:49:36;;;;;;;1.83;0.32;;;;;;;39.36;10.01;98859.50;5037806;28;20056;-78
2024/04/03 08:52:10;;;;;;;;;;;;;;;39.49;9.96;98857.03;5021614;28;20052;-77
2024/04/03 08:54:36;;;;;;;2.10;0.30;;;;;;;39.54;10.17;98851.53;5054066;28;19909;-79
2024/04/03 08:57:03;;;;;;;2.10;0.50;;;;;;;39.50;9.99;98854.00;5037536;28;20079;-77
2024/04/03 08:59:31;;;;;;;1.58;0.50;;;;;;;39.45;10.14;98857.66;5036980;28;20029;-77
2024/04/03 09:01:57;;;;;;;0.60;0.20;;;;;;;39.25;10.07;98853.44;5038380;28;20043;-78
2024/04/03 09:04:22;;;;;;;2.67;0.28;;;;;;;39.16;9.61;98860.72;5038003;28;20036;-79
2024/04/03 09:06:48;;;;;;;1.13;0.30;;;;;;;38.86;9.78;98846.53;5037242;28;20029;-77
2024/04/03 09:09:26;;;;;;;2.03;0.22;;;;;;;38.90;9.99;98835.81;5021175;28;20040;-77
2024/04/03 09:11:59;;;;;;;0.77;0.30;;;;;;;38.62;9.02;98840.44;5054255;28;20033;-78
2024/04/03 09:14:25;;;;;;;1.08;0.25;;;;;;;37.23;10.08;98828.81;5037143;28;20053;-77
2024/04/03 09:16:50;;;;;;;2.00;0.43;;;;;;;36.42;10.56;98821.19;5020574;28;20499;-77
2024/04/03 09:19:16;;;;;;;4.63;0.30;;;;;;;35.83;11.42;98836.53;5035533;28;20123;-76
2024/04/03 09:21:41;;;;;;;1.35;0.28;;;;;;;35.91;11.55;98821.53;5053800;28;20580;-80
2024/04/03 09:24:10;;;;;;;3.88;0.32;;;;;;;36.14;11.61;98825.47;5037165;28;20044;-78
2024/04/03 09:26:48;;;;;;;1.90;0.40;;;;;;;35.64;11.16;98831.72;5003389;28;20450;-77
2024/04/03 09:29:17;;;;;;;2.00;0.20;;;;;;;35.41;11.88;98821.50;5035097;28;20029;-77
2024/04/03 09:31:46;;;;;;;1.48;0.30;;;;;;;35.53;11.74;98818.47;5054855;28;20531;-77
2024/04/03 09:34:12;;;;;;;0.77;0.22;;;;;;;35.52;11.48;98823.09;5004490;28;20045;-78
2024/04/03 09:36:39;;;;;;;0.35;0.20;;;;;;;34.72;11.49;98821.16;5054411;28;20108;-77
2024/04/03 09:39:05;;;;;;;2.00;0.38;;;;;;;34.16;12.18;98828.19;5054322;28;20037;-77
2024/04/03 09:41:31;;;;;;;0.60;0.20;;;;;;;33.86;12.70;98828.97;5036352;28;20553;-79
2024/04/03 09:44:01;;;;;;;1.20;0.15;;;;;;;33.95;12.18;98821.94;5035979;28;20123;-76
2024/04/03 09:46:32;;;;;;;2.10;0.40;;;;;;;34.07;12.33;98824.41;5035633;28;20029;-77
2024/04/03 09:48:58;;;;;;;0.88;0.30;;;;;;;33.97;12.52;98808.13;5020281;28;20037;-78
2024/04/03 09:51:23;;;;;;;0.93;0.30;;;;;;;33.64;11.88;98805.63;5019898;28;20040;-77
2024/04/03 09:53:49;;;;;;;3.13;0.40;;;;;;;32.97;12.26;98810.75;5035998;28;20476;-77
2024/04/03 09:56:16;;;;;;;1.17;0.20;;;;;;;32.82;13.14;98816.06;5036336;28;20083;-76
2024/04/03 09:58:42;;;;;;;1.92;0.30;;;;;;;33.03;13.34;98806.16;5035148;28;20045;-78
2024/04/03 10:01:08;;;;;;;1.55;0.30;;;;;;;33.03;13.00;98808.06;5036030;28;20043;-78
2024/04/03 10:03:34;;;;;;;0.98;0.30;;;;;;;33.13;13.09;98795.41;5019099;28;20048;-82
2024/04/03 10:06:00;;;;;;;1.13;0.28;;;;;;;33.21;13.31;98790.59;5036042;28;20045;-77
2024/04/03 10:08:42;;;;;;;1.85;0.35;;;;;;;33.26;13.03;98785.22;5035522;28;20025;-79
2024/04/03 10:11:09;;;;;;;0.60;0.20;;;;;;;33.03;12.69;98798.06;5035456;28;20029;-79
2024/04/03 10:13:35;;;;;;;0.93;0.30;;;;;;;32.91;13.47;98784.75;5005215;28;20120;-76
2024/04/03 10:16:13;;;;;;;0.38;0.15;;;;;;;32.90;13.20;98790.44;5039188;28;20056;-79
2024/04/03 10:18:57;;;;;;;2.47;0.32;;;;;;;32.35;12.96;98781.69;5037999;28;20033;-80
2024/04/03 10:21:24;;;;;;;1.67;0.20;;;;;;;32.23;12.98;98779.97;5053720;28;20041;-77
2024/04/03 10:23:50;;;;;;;1.83;0.30;;;;;;;32.10;13.35;98773.13;5036609;28;20056;-77
2024/04/03 10:26:16;;;;;;;2.72;0.32;;;;;;;31.93;13.42;98764.31;5036298;28;20037;-77
2024/04/03 10:28:42;;;;;;;0.85;0.20;;;;;;;31.91;13.70;98778.06;5036205;28;20025;-77
2024/04/03 10:31:08;;;;;;;0.90;0.30;;;;;;;31.70;13.16;98770.81;5051568;28;20458;-78
2024/04/03 10:33:34;;;;;;;1.80;0.20;;;;;;;31.35;13.23;98774.75;5036032;28;20127;-78
2024/04/03 10:35:59;;;;;;;0.90;0.38;;;;;;;31.12;13.93;98756.94;5035604;28;20112;-79
2024/04/03 10:38:25;;;;;;;0.93;0.28;;;;;;;31.07;14.09;98765.78;5035325;28;20039;-77
2024/04/03 10:40:51;;;;;;;1.08;0.20;;;;;;;30.77;14.47;98764.28;5035263;28;20385;-76
2024/04/03 10:43:16;;;;;;;2.08;0.20;;;;;;;30.45;14.61;98769.47;5018428;28;20044;-77
2024/04/03 10:45:51;;;;;;;0.82;0.20;;;;;;;30.40;15.05;98748.66;5035475;28;20025;-77
2024/04/03 10:48:18;;;;;;;0.60;0.20;;;;;;;30.26;15.02;98769.69;5034792;28;20029;-77
2024/04/03 10:50:44;;;;;;;1.75;0.22;;;;;;;30.20;15.01;98759.09;5036032;28;20542;-76
2024/04/03 10:53:10;;;;;;;0.95;0.30;;;;;;;29.78;14.95;98758.38;5034806;28;20025;-79
2024/04/03 10:55:38;;;;;;;1.50;0.30;;;;;;;29.63;14.67;98751.91;5018158;28;20523;-77
2024/04/03 10:58:04;;;;;;;1.83;0.20;;;;;;;29.22;15.49;98755.47;5034578;28;20033;-78
2024/04/03 11:00:34;;;;;;;2.53;0.20;;;;;;;28.95;15.23;98757.81;5018229;28;20064;-77
2024/04/03 11:03:03;;;;;;;1.63;0.30;;;;;;;28.64;16.05;98746.41;5035393;28;20388;-76
2024/04/03 11:05:29;;;;;;;4.03;0.45;;;;;;;28.64;15.91;98743.75;5034672;28;20460;-77
2024/04/03 11:07:55;;;;;;;4.13;0.38;;;;;;;28.69;16.46;98740.34;5034594;28;20063;-78
2024/04/03 11:10:21;;;;;;;0.90;0.20;;;;;;;28.57;16.28;98740.31;5035663;28;20028;-78
2024/04/03 11:12:47;;;;;;;0.77;0.30;;;;;;;28.50;16.42;98753.06;5034965;28;20083;-79
2024/04/03 11:15:13;;;;;;;3.40;0.30;;;;;;;28.37;16.50;98745.22;5034022;28;20053;-77
2024/04/03 11:17:39;;;;;;;0.93;0.20;;;;;;;28.30;16.05;98739.97;5035359;28;20029;-77
2024/04/03 11:20:05;;;;;;;0.98;0.22;;;;;;;28.34;16.11;98731.22;5034489;28;20120;-80
2024/04/03 11:22:31;;;;;;;1.35;0.40;;;;;;;28.38;16.44;98731.56;5034929;28;20047;-78
2024/04/03 11:24:57;;;;;;;0.98;0.20;;;;;;;28.32;16.60;98721.75;5017495;28;20492;-76
2024/04/03 11:27:22;;;;;;;3.97;0.30;;;;;;;28.30;16.58;98727.34;5034895;28;20029;-75
2024/04/03 11:29:48;;;;;;;1.52;0.32;;;;;;;28.20;16.73;98716.41;5034892;28;20025;-77
2024/04/03 11:32:16;;;;;;;1.80;0.20;;;;;;;28.14;16.89;98714.63;5035060;28;20095;-77
2024/04/03 11:34:41;;;;;;;;;;;;;;;28.15;17.08;98713.59;5035607;28;20082;-77
2024/04/03 11:37:06;;;;;;;3.15;0.25;;;;;;;28.10;17.18;98702.72;5051631;28;19909;-79